sensor_id;sensor_type;location;lat;lon;timestamp;P1;durP1;ratioP1;P2;durP2;ratioP2
28774;SDS011;15926;51.348;6.596;2023-03-23T00:01:17;2.15;;;1.95;;
28774;SDS011;15926;51.348;6.596;2023-03-23T00:03:44;3.88;;;1.88;;
28774;SDS011;15926;51.348;6.596;2023-03-23T00:06:10;2.60;;;1.58;;
28774;SDS011;15926;51.348;6.596;2023-03-23T00:08:41;1.85;;;1.65;;
28774;SDS011;15926;51.348;6.596;2023-03-23T00:11:11;2.78;;;1.65;;
28774;SDS011;15926;51.348;6.596;2023-03-23T00:13:39;2.45;;;1.63;;
28774;SDS011;15926;51.348;6.596;2023-03-23T00:16:05;1.95;;;1.77;;
28774;SDS011;15926;51.348;6.596;2023-03-23T00:18:49;7.13;;;1.92;;
28774;SDS011;15926;51.348;6.596;2023-03-23T00:21:22;1.85;;;1.75;;
28774;SDS011;15926;51.348;6.596;2023-03-23T00:23:50;2.50;;;1.80;;
28774;SDS011;15926;51.348;6.596;2023-03-23T00:26:16;5.07;;;1.80;;
28774;SDS011;15926;51.348;6.596;2023-03-23T00:28:42;4.10;;;2.20;;
28774;SDS011;15926;51.348;6.596;2023-03-23T00:31:09;1.98;;;1.75;;
28774;SDS011;15926;51.348;6.596;2023-03-23T00:33:36;1.77;;;1.48;;
28774;SDS011;15926;51.348;6.596;2023-03-23T00:36:09;2.30;;;1.70;;
28774;SDS011;15926;51.348;6.596;2023-03-23T00:38:36;2.40;;;1.83;;
28774;SDS011;15926;51.348;6.596;2023-03-23T00:41:03;3.97;;;1.90;;
28774;SDS011;15926;51.348;6.596;2023-03-23T00:43:29;2.47;;;1.38;;
28774;SDS011;15926;51.348;6.596;2023-03-23T00:45:55;4.22;;;1.90;;
28774;SDS011;15926;51.348;6.596;2023-03-23T00:48:23;2.42;;;2.00;;
28774;SDS011;15926;51.348;6.596;2023-03-23T00:50:49;2.08;;;1.48;;
28774;SDS011;15926;51.348;6.596;2023-03-23T00:53:16;2.40;;;1.67;;
28774;SDS011;15926;51.348;6.596;2023-03-23T00:55:43;3.03;;;2.00;;
28774;SDS011;15926;51.348;6.596;2023-03-23T00:58:10;1.80;;;1.70;;
28774;SDS011;15926;51.348;6.596;2023-03-23T01:00:36;2.00;;;1.80;;
28774;SDS011;15926;51.348;6.596;2023-03-23T01:03:02;2.72;;;1.65;;
28774;SDS011;15926;51.348;6.596;2023-03-23T01:05:29;3.05;;;1.75;;
28774;SDS011;15926;51.348;6.596;2023-03-23T01:07:56;2.10;;;1.73;;
28774;SDS011;15926;51.348;6.596;2023-03-23T01:10:22;2.95;;;1.95;;
28774;SDS011;15926;51.348;6.596;2023-03-23T01:12:49;3.97;;;1.75;;
28774;SDS011;15926;51.348;6.596;2023-03-23T01:15:16;5.28;;;1.83;;
28774;SDS011;15926;51.348;6.596;2023-03-23T01:17:43;4.60;;;1.77;;
28774;SDS011;15926;51.348;6.596;2023-03-23T01:20:10;2.78;;;1.70;;
28774;SDS011;15926;51.348;6.596;2023-03-23T01:22:36;1.73;;;1.63;;
28774;SDS011;15926;51.348;6.596;2023-03-23T01:25:02;2.00;;;1.77;;
28774;SDS011;15926;51.348;6.596;2023-03-23T01:27:28;2.58;;;1.95;;
28774;SDS011;15926;51.348;6.596;2023-03-23T01:29:55;2.63;;;2.00;;
28774;SDS011;15926;51.348;6.596;2023-03-23T01:32:21;2.78;;;2.05;;
28774;SDS011;15926;51.348;6.596;2023-03-23T01:34:47;4.72;;;1.73;;
28774;SDS011;15926;51.348;6.596;2023-03-23T01:37:13;1.90;;;1.58;;
28774;SDS011;15926;51.348;6.596;2023-03-23T01:39:40;2.53;;;2.00;;
28774;SDS011;15926;51.348;6.596;2023-03-23T01:42:07;2.78;;;1.67;;
28774;SDS011;15926;51.348;6.596;2023-03-23T01:47:00;2.58;;;2.00;;
28774;SDS011;15926;51.348;6.596;2023-03-23T01:49:30;2.67;;;1.90;;
28774;SDS011;15926;51.348;6.596;2023-03-23T01:51:58;3.05;;;1.67;;
28774;SDS011;15926;51.348;6.596;2023-03-23T01:54:25;4.47;;;2.10;;
28774;SDS011;15926;51.348;6.596;2023-03-23T01:56:53;2.75;;;1.88;;
28774;SDS011;15926;51.348;6.596;2023-03-23T01:59:20;2.35;;;1.80;;
28774;SDS011;15926;51.348;6.596;2023-03-23T02:01:46;4.45;;;2.00;;
28774;SDS011;15926;51.348;6.596;2023-03-23T02:04:13;2.95;;;2.35;;
28774;SDS011;15926;51.348;6.596;2023-03-23T02:06:40;3.22;;;1.90;;
28774;SDS011;15926;51.348;6.596;2023-03-23T02:09:06;2.85;;;2.22;;
28774;SDS011;15926;51.348;6.596;2023-03-23T02:11:33;2.95;;;1.92;;
28774;SDS011;15926;51.348;6.596;2023-03-23T02:13:59;1.98;;;1.88;;
28774;SDS011;15926;51.348;6.596;2023-03-23T02:16:28;1.95;;;1.77;;
28774;SDS011;15926;51.348;6.596;2023-03-23T02:26:59;3.35;;;1.92;;
28774;SDS011;15926;51.348;6.596;2023-03-23T02:35:06;2.58;;;2.00;;
28774;SDS011;15926;51.348;6.596;2023-03-23T02:40:11;4.75;;;2.25;;
28774;SDS011;15926;51.348;6.596;2023-03-23T02:42:39;4.55;;;2.28;;
28774;SDS011;15926;51.348;6.596;2023-03-23T02:45:07;3.08;;;1.67;;
28774;SDS011;15926;51.348;6.596;2023-03-23T02:47:34;3.90;;;2.20;;
28774;SDS011;15926;51.348;6.596;2023-03-23T02:50:01;2.28;;;1.85;;
28774;SDS011;15926;51.348;6.596;2023-03-23T02:52:28;2.42;;;2.05;;
28774;SDS011;15926;51.348;6.596;2023-03-23T02:54:55;2.10;;;1.98;;
28774;SDS011;15926;51.348;6.596;2023-03-23T02:57:23;3.85;;;1.98;;
28774;SDS011;15926;51.348;6.596;2023-03-23T02:59:51;5.88;;;2.35;;
28774;SDS011;15926;51.348;6.596;2023-03-23T03:02:23;2.40;;;1.92;;
28774;SDS011;15926;51.348;6.596;2023-03-23T03:04:53;2.50;;;2.22;;
28774;SDS011;15926;51.348;6.596;2023-03-23T03:10:02;4.60;;;2.03;;
28774;SDS011;15926;51.348;6.596;2023-03-23T03:20:25;2.20;;;1.70;;
28774;SDS011;15926;51.348;6.596;2023-03-23T03:22:52;3.03;;;1.80;;
28774;SDS011;15926;51.348;6.596;2023-03-23T03:25:19;1.75;;;1.65;;
28774;SDS011;15926;51.348;6.596;2023-03-23T03:27:47;1.80;;;1.70;;
28774;SDS011;15926;51.348;6.596;2023-03-23T03:30:18;2.97;;;1.90;;
28774;SDS011;15926;51.348;6.596;2023-03-23T03:32:50;2.83;;;1.75;;
28774;SDS011;15926;51.348;6.596;2023-03-23T03:35:18;1.70;;;1.60;;
28774;SDS011;15926;51.348;6.596;2023-03-23T03:37:44;2.80;;;1.80;;
28774;SDS011;15926;51.348;6.596;2023-03-23T03:40:13;3.10;;;1.60;;
28774;SDS011;15926;51.348;6.596;2023-03-23T03:42:41;3.17;;;1.48;;
28774;SDS011;15926;51.348;6.596;2023-03-23T03:45:08;1.67;;;1.48;;
28774;SDS011;15926;51.348;6.596;2023-03-23T03:47:34;1.63;;;1.30;;
28774;SDS011;15926;51.348;6.596;2023-03-23T03:50:00;1.75;;;1.63;;
28774;SDS011;15926;51.348;6.596;2023-03-23T03:52:26;2.05;;;1.95;;
28774;SDS011;15926;51.348;6.596;2023-03-23T03:54:52;1.70;;;1.60;;
28774;SDS011;15926;51.348;6.596;2023-03-23T03:57:19;1.48;;;1.38;;
28774;SDS011;15926;51.348;6.596;2023-03-23T03:59:45;2.72;;;1.90;;
28774;SDS011;15926;51.348;6.596;2023-03-23T04:02:12;2.58;;;2.15;;
28774;SDS011;15926;51.348;6.596;2023-03-23T04:04:41;1.58;;;1.48;;
28774;SDS011;15926;51.348;6.596;2023-03-23T04:07:08;2.08;;;1.88;;
28774;SDS011;15926;51.348;6.596;2023-03-23T04:09:38;2.00;;;1.90;;
28774;SDS011;15926;51.348;6.596;2023-03-23T04:12:04;2.13;;;1.92;;
28774;SDS011;15926;51.348;6.596;2023-03-23T04:14:30;2.13;;;1.70;;
28774;SDS011;15926;51.348;6.596;2023-03-23T04:16:56;2.03;;;1.45;;
28774;SDS011;15926;51.348;6.596;2023-03-23T04:19:23;3.42;;;1.48;;
28774;SDS011;15926;51.348;6.596;2023-03-23T04:21:49;1.73;;;1.60;;
28774;SDS011;15926;51.348;6.596;2023-03-23T04:24:15;2.65;;;1.58;;
28774;SDS011;15926;51.348;6.596;2023-03-23T04:26:41;1.63;;;1.50;;
28774;SDS011;15926;51.348;6.596;2023-03-23T04:29:09;1.95;;;1.67;;
28774;SDS011;15926;51.348;6.596;2023-03-23T04:31:38;3.60;;;2.10;;
28774;SDS011;15926;51.348;6.596;2023-03-23T04:34:04;3.03;;;1.50;;
28774;SDS011;15926;51.348;6.596;2023-03-23T04:36:30;2.13;;;1.42;;
28774;SDS011;15926;51.348;6.596;2023-03-23T04:38:59;2.33;;;1.63;;
28774;SDS011;15926;51.348;6.596;2023-03-23T04:41:25;1.80;;;1.70;;
28774;SDS011;15926;51.348;6.596;2023-03-23T04:43:52;2.53;;;1.75;;
28774;SDS011;15926;51.348;6.596;2023-03-23T04:46:21;3.17;;;1.70;;
28774;SDS011;15926;51.348;6.596;2023-03-23T04:48:47;1.95;;;1.52;;
28774;SDS011;15926;51.348;6.596;2023-03-23T04:51:13;1.70;;;1.60;;
28774;SDS011;15926;51.348;6.596;2023-03-23T04:53:39;1.80;;;1.70;;
28774;SDS011;15926;51.348;6.596;2023-03-23T04:56:06;3.58;;;1.80;;
28774;SDS011;15926;51.348;6.596;2023-03-23T04:58:32;2.92;;;2.03;;
28774;SDS011;15926;51.348;6.596;2023-03-23T05:00:59;3.63;;;1.60;;
28774;SDS011;15926;51.348;6.596;2023-03-23T05:03:25;3.42;;;2.00;;
28774;SDS011;15926;51.348;6.596;2023-03-23T05:05:52;2.10;;;1.52;;
28774;SDS011;15926;51.348;6.596;2023-03-23T05:08:22;2.42;;;1.70;;
28774;SDS011;15926;51.348;6.596;2023-03-23T05:10:52;2.22;;;1.52;;
28774;SDS011;15926;51.348;6.596;2023-03-23T05:13:19;2.10;;;1.70;;
28774;SDS011;15926;51.348;6.596;2023-03-23T05:15:45;2.00;;;1.83;;
28774;SDS011;15926;51.348;6.596;2023-03-23T05:18:11;2.60;;;1.70;;
28774;SDS011;15926;51.348;6.596;2023-03-23T05:20:37;1.90;;;1.45;;
28774;SDS011;15926;51.348;6.596;2023-03-23T05:23:03;1.70;;;1.60;;
28774;SDS011;15926;51.348;6.596;2023-03-23T05:25:29;1.80;;;1.70;;
28774;SDS011;15926;51.348;6.596;2023-03-23T05:27:55;2.83;;;1.58;;
28774;SDS011;15926;51.348;6.596;2023-03-23T05:30:21;1.77;;;1.60;;
28774;SDS011;15926;51.348;6.596;2023-03-23T05:32:48;1.90;;;1.70;;
28774;SDS011;15926;51.348;6.596;2023-03-23T05:37:43;5.38;;;2.08;;
28774;SDS011;15926;51.348;6.596;2023-03-23T05:40:10;2.58;;;1.92;;
28774;SDS011;15926;51.348;6.596;2023-03-23T05:42:37;5.40;;;1.95;;
28774;SDS011;15926;51.348;6.596;2023-03-23T05:45:05;6.85;;;2.00;;
28774;SDS011;15926;51.348;6.596;2023-03-23T05:47:31;2.20;;;2.00;;
28774;SDS011;15926;51.348;6.596;2023-03-23T05:49:57;1.80;;;1.63;;
28774;SDS011;15926;51.348;6.596;2023-03-23T05:52:23;2.88;;;2.00;;
28774;SDS011;15926;51.348;6.596;2023-03-23T05:54:50;3.10;;;1.90;;
28774;SDS011;15926;51.348;6.596;2023-03-23T05:57:17;3.30;;;2.30;;
28774;SDS011;15926;51.348;6.596;2023-03-23T05:59:43;3.28;;;2.13;;
28774;SDS011;15926;51.348;6.596;2023-03-23T06:02:10;2.70;;;1.65;;
28774;SDS011;15926;51.348;6.596;2023-03-23T06:04:36;2.97;;;1.90;;
28774;SDS011;15926;51.348;6.596;2023-03-23T06:07:03;3.75;;;1.90;;
28774;SDS011;15926;51.348;6.596;2023-03-23T06:09:29;2.30;;;1.88;;
28774;SDS011;15926;51.348;6.596;2023-03-23T06:11:55;2.83;;;2.08;;
28774;SDS011;15926;51.348;6.596;2023-03-23T06:14:22;2.15;;;1.80;;
28774;SDS011;15926;51.348;6.596;2023-03-23T06:16:48;3.45;;;1.88;;
28774;SDS011;15926;51.348;6.596;2023-03-23T06:19:14;4.07;;;2.03;;
28774;SDS011;15926;51.348;6.596;2023-03-23T06:21:40;2.25;;;1.63;;
28774;SDS011;15926;51.348;6.596;2023-03-23T06:24:06;2.50;;;1.77;;
28774;SDS011;15926;51.348;6.596;2023-03-23T06:26:34;1.95;;;1.77;;
28774;SDS011;15926;51.348;6.596;2023-03-23T06:29:01;2.10;;;1.90;;
28774;SDS011;15926;51.348;6.596;2023-03-23T06:31:28;1.95;;;1.75;;
28774;SDS011;15926;51.348;6.596;2023-03-23T06:33:54;3.88;;;1.67;;
28774;SDS011;15926;51.348;6.596;2023-03-23T06:36:21;1.63;;;1.45;;
28774;SDS011;15926;51.348;6.596;2023-03-23T06:38:47;4.28;;;1.65;;
28774;SDS011;15926;51.348;6.596;2023-03-23T06:41:13;3.50;;;1.88;;
28774;SDS011;15926;51.348;6.596;2023-03-23T06:43:39;3.63;;;1.65;;
28774;SDS011;15926;51.348;6.596;2023-03-23T06:46:06;3.08;;;1.70;;
28774;SDS011;15926;51.348;6.596;2023-03-23T06:48:32;3.13;;;1.75;;
28774;SDS011;15926;51.348;6.596;2023-03-23T06:50:58;3.10;;;1.63;;
28774;SDS011;15926;51.348;6.596;2023-03-23T06:53:24;5.70;;;1.60;;
28774;SDS011;15926;51.348;6.596;2023-03-23T06:55:50;2.08;;;1.20;;
28774;SDS011;15926;51.348;6.596;2023-03-23T06:58:16;4.28;;;1.85;;
28774;SDS011;15926;51.348;6.596;2023-03-23T07:00:42;5.25;;;1.38;;
28774;SDS011;15926;51.348;6.596;2023-03-23T07:03:09;3.67;;;1.55;;
28774;SDS011;15926;51.348;6.596;2023-03-23T07:05:35;1.80;;;1.42;;
28774;SDS011;15926;51.348;6.596;2023-03-23T07:08:02;3.25;;;1.60;;
28774;SDS011;15926;51.348;6.596;2023-03-23T07:10:28;2.78;;;1.83;;
28774;SDS011;15926;51.348;6.596;2023-03-23T07:12:54;1.45;;;1.20;;
28774;SDS011;15926;51.348;6.596;2023-03-23T07:15:20;2.00;;;1.40;;
28774;SDS011;15926;51.348;6.596;2023-03-23T07:17:47;1.30;;;1.20;;
28774;SDS011;15926;51.348;6.596;2023-03-23T07:20:13;4.95;;;1.33;;
28774;SDS011;15926;51.348;6.596;2023-03-23T07:22:42;5.60;;;1.42;;
28774;SDS011;15926;51.348;6.596;2023-03-23T07:25:08;4.15;;;1.52;;
28774;SDS011;15926;51.348;6.596;2023-03-23T07:27:35;3.78;;;1.35;;
28774;SDS011;15926;51.348;6.596;2023-03-23T07:30:01;4.90;;;1.50;;
28774;SDS011;15926;51.348;6.596;2023-03-23T07:32:27;3.80;;;1.65;;
28774;SDS011;15926;51.348;6.596;2023-03-23T07:34:53;2.20;;;1.33;;
28774;SDS011;15926;51.348;6.596;2023-03-23T07:37:19;3.83;;;1.75;;
28774;SDS011;15926;51.348;6.596;2023-03-23T07:39:45;1.98;;;1.20;;
28774;SDS011;15926;51.348;6.596;2023-03-23T07:42:11;1.85;;;1.10;;
28774;SDS011;15926;51.348;6.596;2023-03-23T07:44:37;2.40;;;1.30;;
28774;SDS011;15926;51.348;6.596;2023-03-23T07:47:03;1.33;;;1.23;;
28774;SDS011;15926;51.348;6.596;2023-03-23T07:49:29;2.17;;;1.40;;
28774;SDS011;15926;51.348;6.596;2023-03-23T07:51:56;2.67;;;1.48;;
28774;SDS011;15926;51.348;6.596;2023-03-23T07:54:22;3.88;;;1.40;;
28774;SDS011;15926;51.348;6.596;2023-03-23T07:56:48;3.78;;;1.40;;
28774;SDS011;15926;51.348;6.596;2023-03-23T07:59:14;3.92;;;1.25;;
28774;SDS011;15926;51.348;6.596;2023-03-23T08:01:40;2.88;;;0.90;;
28774;SDS011;15926;51.348;6.596;2023-03-23T08:04:06;5.35;;;1.20;;
28774;SDS011;15926;51.348;6.596;2023-03-23T08:06:33;2.08;;;1.20;;
28774;SDS011;15926;51.348;6.596;2023-03-23T08:08:59;1.98;;;1.38;;
28774;SDS011;15926;51.348;6.596;2023-03-23T08:11:32;4.18;;;1.33;;
28774;SDS011;15926;51.348;6.596;2023-03-23T08:13:58;3.35;;;1.23;;
28774;SDS011;15926;51.348;6.596;2023-03-23T08:16:24;2.90;;;1.38;;
28774;SDS011;15926;51.348;6.596;2023-03-23T08:18:50;1.98;;;1.10;;
28774;SDS011;15926;51.348;6.596;2023-03-23T08:21:17;1.45;;;1.02;;
28774;SDS011;15926;51.348;6.596;2023-03-23T08:23:43;2.25;;;1.00;;
28774;SDS011;15926;51.348;6.596;2023-03-23T08:26:10;5.43;;;1.23;;
28774;SDS011;15926;51.348;6.596;2023-03-23T08:28:36;3.00;;;1.30;;
28774;SDS011;15926;51.348;6.596;2023-03-23T08:31:10;2.25;;;1.00;;
28774;SDS011;15926;51.348;6.596;2023-03-23T08:33:36;2.75;;;1.20;;
28774;SDS011;15926;51.348;6.596;2023-03-23T08:36:02;3.80;;;1.30;;
28774;SDS011;15926;51.348;6.596;2023-03-23T08:38:28;2.30;;;1.20;;
28774;SDS011;15926;51.348;6.596;2023-03-23T08:41:02;1.33;;;0.90;;
28774;SDS011;15926;51.348;6.596;2023-03-23T08:43:29;2.97;;;1.10;;
28774;SDS011;15926;51.348;6.596;2023-03-23T08:45:55;1.75;;;1.17;;
28774;SDS011;15926;51.348;6.596;2023-03-23T08:48:21;4.95;;;1.17;;
28774;SDS011;15926;51.348;6.596;2023-03-23T08:50:48;3.10;;;1.10;;
28774;SDS011;15926;51.348;6.596;2023-03-23T08:53:14;4.65;;;1.42;;
28774;SDS011;15926;51.348;6.596;2023-03-23T08:55:40;1.17;;;0.98;;
28774;SDS011;15926;51.348;6.596;2023-03-23T08:58:08;3.67;;;0.90;;
28774;SDS011;15926;51.348;6.596;2023-03-23T09:00:34;4.10;;;1.25;;
28774;SDS011;15926;51.348;6.596;2023-03-23T09:03:00;4.38;;;1.23;;
28774;SDS011;15926;51.348;6.596;2023-03-23T09:05:27;4.32;;;1.00;;
28774;SDS011;15926;51.348;6.596;2023-03-23T09:07:54;2.60;;;1.10;;
28774;SDS011;15926;51.348;6.596;2023-03-23T09:10:23;3.42;;;1.15;;
28774;SDS011;15926;51.348;6.596;2023-03-23T09:12:49;2.88;;;0.90;;
28774;SDS011;15926;51.348;6.596;2023-03-23T09:15:17;4.15;;;1.17;;
28774;SDS011;15926;51.348;6.596;2023-03-23T09:17:47;5.10;;;1.50;;
28774;SDS011;15926;51.348;6.596;2023-03-23T09:20:15;2.53;;;0.90;;
28774;SDS011;15926;51.348;6.596;2023-03-23T09:22:44;2.90;;;1.17;;
28774;SDS011;15926;51.348;6.596;2023-03-23T09:25:12;2.70;;;1.00;;
28774;SDS011;15926;51.348;6.596;2023-03-23T09:27:39;2.30;;;1.45;;
28774;SDS011;15926;51.348;6.596;2023-03-23T09:30:06;6.05;;;1.38;;
28774;SDS011;15926;51.348;6.596;2023-03-23T09:32:33;2.03;;;0.82;;
28774;SDS011;15926;51.348;6.596;2023-03-23T09:35:04;4.70;;;0.90;;
28774;SDS011;15926;51.348;6.596;2023-03-23T09:37:32;2.53;;;0.65;;
28774;SDS011;15926;51.348;6.596;2023-03-23T09:40:00;2.17;;;1.05;;
28774;SDS011;15926;51.348;6.596;2023-03-23T09:50:15;2.72;;;0.82;;
28774;SDS011;15926;51.348;6.596;2023-03-23T09:52:44;0.70;;;0.57;;
28774;SDS011;15926;51.348;6.596;2023-03-23T09:57:55;2.78;;;0.80;;
28774;SDS011;15926;51.348;6.596;2023-03-23T10:00:25;2.38;;;1.42;;
28774;SDS011;15926;51.348;6.596;2023-03-23T10:02:55;1.90;;;1.00;;
28774;SDS011;15926;51.348;6.596;2023-03-23T10:05:37;2.20;;;1.00;;
28774;SDS011;15926;51.348;6.596;2023-03-23T10:08:14;3.03;;;0.90;;
28774;SDS011;15926;51.348;6.596;2023-03-23T10:10:50;1.95;;;0.70;;
28774;SDS011;15926;51.348;6.596;2023-03-23T10:13:21;2.13;;;1.00;;
28774;SDS011;15926;51.348;6.596;2023-03-23T10:15:49;2.80;;;1.00;;
28774;SDS011;15926;51.348;6.596;2023-03-23T10:18:49;2.05;;;0.77;;
28774;SDS011;15926;51.348;6.596;2023-03-23T10:21:10;0.95;;;0.88;;
28774;SDS011;15926;51.348;6.596;2023-03-23T10:23:58;1.23;;;0.80;;
28774;SDS011;15926;51.348;6.596;2023-03-23T10:28:54;1.20;;;0.68;;
28774;SDS011;15926;51.348;6.596;2023-03-23T10:31:23;2.13;;;0.75;;
28774;SDS011;15926;51.348;6.596;2023-03-23T10:33:54;4.00;;;0.93;;
28774;SDS011;15926;51.348;6.596;2023-03-23T10:39:21;1.55;;;0.80;;
28774;SDS011;15926;51.348;6.596;2023-03-23T10:41:48;1.25;;;0.75;;
28774;SDS011;15926;51.348;6.596;2023-03-23T10:44:21;1.38;;;0.70;;
28774;SDS011;15926;51.348;6.596;2023-03-23T10:49:21;1.25;;;0.50;;
28774;SDS011;15926;51.348;6.596;2023-03-23T10:51:57;2.38;;;0.60;;
28774;SDS011;15926;51.348;6.596;2023-03-23T10:54:36;1.95;;;0.50;;
28774;SDS011;15926;51.348;6.596;2023-03-23T10:57:30;1.38;;;0.60;;
28774;SDS011;15926;51.348;6.596;2023-03-23T10:59:58;2.05;;;0.60;;
28774;SDS011;15926;51.348;6.596;2023-03-23T11:02:25;1.67;;;0.73;;
28774;SDS011;15926;51.348;6.596;2023-03-23T11:04:56;0.73;;;0.60;;
28774;SDS011;15926;51.348;6.596;2023-03-23T11:07:25;1.85;;;0.77;;
28774;SDS011;15926;51.348;6.596;2023-03-23T11:09:53;2.05;;;0.95;;
28774;SDS011;15926;51.348;6.596;2023-03-23T11:12:20;1.30;;;0.65;;
28774;SDS011;15926;51.348;6.596;2023-03-23T11:14:47;1.52;;;0.77;;
28774;SDS011;15926;51.348;6.596;2023-03-23T11:17:24;2.70;;;1.35;;
28774;SDS011;15926;51.348;6.596;2023-03-23T11:19:51;3.30;;;0.63;;
28774;SDS011;15926;51.348;6.596;2023-03-23T11:22:25;2.08;;;0.80;;
28774;SDS011;15926;51.348;6.596;2023-03-23T11:24:55;0.57;;;0.57;;
28774;SDS011;15926;51.348;6.596;2023-03-23T11:27:21;2.08;;;0.82;;
28774;SDS011;15926;51.348;6.596;2023-03-23T11:29:53;11.07;;;1.15;;
28774;SDS011;15926;51.348;6.596;2023-03-23T11:32:21;1.73;;;0.90;;
28774;SDS011;15926;51.348;6.596;2023-03-23T11:34:48;2.75;;;0.90;;
28774;SDS011;15926;51.348;6.596;2023-03-23T11:37:18;0.88;;;0.88;;
28774;SDS011;15926;51.348;6.596;2023-03-23T11:39:46;1.00;;;0.77;;
28774;SDS011;15926;51.348;6.596;2023-03-23T11:42:20;1.88;;;0.77;;
28774;SDS011;15926;51.348;6.596;2023-03-23T11:44:46;2.22;;;1.17;;
28774;SDS011;15926;51.348;6.596;2023-03-23T11:47:27;2.58;;;1.13;;
28774;SDS011;15926;51.348;6.596;2023-03-23T11:55:18;0.90;;;0.90;;
28774;SDS011;15926;51.348;6.596;2023-03-23T11:57:45;2.13;;;1.08;;
28774;SDS011;15926;51.348;6.596;2023-03-23T12:00:13;1.90;;;1.00;;
28774;SDS011;15926;51.348;6.596;2023-03-23T12:02:56;1.40;;;1.20;;
28774;SDS011;15926;51.348;6.596;2023-03-23T12:05:37;2.42;;;1.20;;
28774;SDS011;15926;51.348;6.596;2023-03-23T12:08:12;1.50;;;1.10;;
28774;SDS011;15926;51.348;6.596;2023-03-23T12:10:45;1.77;;;0.90;;
28774;SDS011;15926;51.348;6.596;2023-03-23T12:13:30;1.00;;;1.00;;
28774;SDS011;15926;51.348;6.596;2023-03-23T12:16:10;1.55;;;0.90;;
28774;SDS011;15926;51.348;6.596;2023-03-23T12:21:24;2.40;;;1.00;;
28774;SDS011;15926;51.348;6.596;2023-03-23T12:26:32;2.30;;;0.90;;
28774;SDS011;15926;51.348;6.596;2023-03-23T12:31:50;2.33;;;1.15;;
28774;SDS011;15926;51.348;6.596;2023-03-23T12:47:48;1.63;;;1.35;;
28774;SDS011;15926;51.348;6.596;2023-03-23T12:50:18;2.08;;;1.20;;
28774;SDS011;15926;51.348;6.596;2023-03-23T12:58:02;4.93;;;1.38;;
28774;SDS011;15926;51.348;6.596;2023-03-23T13:01:14;2.10;;;1.07;;
28774;SDS011;15926;51.348;6.596;2023-03-23T13:06:07;3.70;;;1.50;;
28774;SDS011;15926;51.348;6.596;2023-03-23T13:08:36;5.72;;;1.48;;
28774;SDS011;15926;51.348;6.596;2023-03-23T13:11:04;3.47;;;1.30;;
28774;SDS011;15926;51.348;6.596;2023-03-23T13:21:34;5.85;;;1.30;;
28774;SDS011;15926;51.348;6.596;2023-03-23T13:24:05;3.28;;;1.20;;
28774;SDS011;15926;51.348;6.596;2023-03-23T13:26:36;2.03;;;1.10;;
28774;SDS011;15926;51.348;6.596;2023-03-23T13:29:10;1.98;;;1.20;;
28774;SDS011;15926;51.348;6.596;2023-03-23T13:31:38;2.22;;;1.17;;
28774;SDS011;15926;51.348;6.596;2023-03-23T13:34:10;1.50;;;1.13;;
28774;SDS011;15926;51.348;6.596;2023-03-23T13:36:38;7.07;;;1.50;;
28774;SDS011;15926;51.348;6.596;2023-03-23T13:39:06;3.22;;;1.38;;
28774;SDS011;15926;51.348;6.596;2023-03-23T13:41:33;2.58;;;1.55;;
28774;SDS011;15926;51.348;6.596;2023-03-23T13:44:40;3.25;;;1.48;;
28774;SDS011;15926;51.348;6.596;2023-03-23T13:46:56;6.15;;;1.63;;
28774;SDS011;15926;51.348;6.596;2023-03-23T13:49:23;4.68;;;1.45;;
28774;SDS011;15926;51.348;6.596;2023-03-23T13:51:57;6.82;;;1.75;;
28774;SDS011;15926;51.348;6.596;2023-03-23T13:54:29;2.13;;;1.70;;
28774;SDS011;15926;51.348;6.596;2023-03-23T13:56:57;7.90;;;2.38;;
28774;SDS011;15926;51.348;6.596;2023-03-23T14:01:56;5.25;;;1.98;;
28774;SDS011;15926;51.348;6.596;2023-03-23T14:04:23;3.67;;;2.38;;
28774;SDS011;15926;51.348;6.596;2023-03-23T14:06:50;2.40;;;2.20;;
28774;SDS011;15926;51.348;6.596;2023-03-23T14:14:23;2.55;;;1.67;;
28774;SDS011;15926;51.348;6.596;2023-03-23T14:16:49;2.15;;;1.95;;
28774;SDS011;15926;51.348;6.596;2023-03-23T14:19:21;4.88;;;2.30;;
28774;SDS011;15926;51.348;6.596;2023-03-23T14:21:52;4.47;;;2.55;;
28774;SDS011;15926;51.348;6.596;2023-03-23T14:24:23;1.80;;;1.70;;
28774;SDS011;15926;51.348;6.596;2023-03-23T14:26:50;2.60;;;1.60;;
28774;SDS011;15926;51.348;6.596;2023-03-23T14:29:18;3.53;;;1.63;;
28774;SDS011;15926;51.348;6.596;2023-03-23T14:31:44;2.35;;;1.50;;
28774;SDS011;15926;51.348;6.596;2023-03-23T14:34:14;6.57;;;1.48;;
28774;SDS011;15926;51.348;6.596;2023-03-23T14:36:41;2.75;;;1.40;;
28774;SDS011;15926;51.348;6.596;2023-03-23T14:39:19;1.20;;;1.10;;
28774;SDS011;15926;51.348;6.596;2023-03-23T14:41:46;4.03;;;1.58;;
28774;SDS011;15926;51.348;6.596;2023-03-23T14:44:14;1.70;;;1.20;;
28774;SDS011;15926;51.348;6.596;2023-03-23T14:46:41;2.03;;;1.45;;
28774;SDS011;15926;51.348;6.596;2023-03-23T14:49:10;3.97;;;1.20;;
28774;SDS011;15926;51.348;6.596;2023-03-23T14:51:45;2.78;;;1.25;;
28774;SDS011;15926;51.348;6.596;2023-03-23T14:54:12;3.90;;;1.42;;
28774;SDS011;15926;51.348;6.596;2023-03-23T14:56:38;1.42;;;1.10;;
28774;SDS011;15926;51.348;6.596;2023-03-23T14:59:06;5.03;;;1.27;;
28774;SDS011;15926;51.348;6.596;2023-03-23T15:01:35;4.45;;;1.23;;
28774;SDS011;15926;51.348;6.596;2023-03-23T15:06:32;3.50;;;1.23;;
28774;SDS011;15926;51.348;6.596;2023-03-23T15:08:59;3.53;;;1.20;;
28774;SDS011;15926;51.348;6.596;2023-03-23T15:11:27;2.47;;;1.05;;
28774;SDS011;15926;51.348;6.596;2023-03-23T15:13:58;3.63;;;1.13;;
28774;SDS011;15926;51.348;6.596;2023-03-23T15:16:28;5.18;;;1.70;;
28774;SDS011;15926;51.348;6.596;2023-03-23T15:18:56;4.95;;;1.95;;
28774;SDS011;15926;51.348;6.596;2023-03-23T15:21:28;2.00;;;1.63;;
28774;SDS011;15926;51.348;6.596;2023-03-23T15:23:54;2.38;;;1.20;;
28774;SDS011;15926;51.348;6.596;2023-03-23T15:28:49;1.98;;;1.25;;
28774;SDS011;15926;51.348;6.596;2023-03-23T15:31:15;2.45;;;1.42;;
28774;SDS011;15926;51.348;6.596;2023-03-23T15:33:41;5.05;;;1.70;;
28774;SDS011;15926;51.348;6.596;2023-03-23T15:36:08;6.15;;;1.50;;
28774;SDS011;15926;51.348;6.596;2023-03-23T15:38:35;2.83;;;1.10;;
28774;SDS011;15926;51.348;6.596;2023-03-23T15:41:06;6.22;;;1.50;;
28774;SDS011;15926;51.348;6.596;2023-03-23T15:43:51;5.80;;;1.42;;
28774;SDS011;15926;51.348;6.596;2023-03-23T15:51:23;1.83;;;1.30;;
28774;SDS011;15926;51.348;6.596;2023-03-23T15:53:50;4.30;;;2.17;;
28774;SDS011;15926;51.348;6.596;2023-03-23T15:56:16;5.82;;;1.58;;
28774;SDS011;15926;51.348;6.596;2023-03-23T15:58:43;2.35;;;1.20;;
28774;SDS011;15926;51.348;6.596;2023-03-23T16:01:19;3.08;;;1.33;;
28774;SDS011;15926;51.348;6.596;2023-03-23T16:06:13;3.88;;;1.45;;
28774;SDS011;15926;51.348;6.596;2023-03-23T16:08:40;3.10;;;1.70;;
28774;SDS011;15926;51.348;6.596;2023-03-23T16:11:12;2.67;;;1.48;;
28774;SDS011;15926;51.348;6.596;2023-03-23T16:13:39;2.28;;;1.50;;
28774;SDS011;15926;51.348;6.596;2023-03-23T16:16:06;4.22;;;1.50;;
28774;SDS011;15926;51.348;6.596;2023-03-23T16:18:32;4.68;;;1.77;;
28774;SDS011;15926;51.348;6.596;2023-03-23T16:20:58;3.28;;;1.70;;
28774;SDS011;15926;51.348;6.596;2023-03-23T16:23:25;4.18;;;1.42;;
28774;SDS011;15926;51.348;6.596;2023-03-23T16:25:51;8.02;;;1.88;;
28774;SDS011;15926;51.348;6.596;2023-03-23T16:28:17;3.33;;;2.10;;
28774;SDS011;15926;51.348;6.596;2023-03-23T16:30:44;4.30;;;1.58;;
28774;SDS011;15926;51.348;6.596;2023-03-23T16:33:11;3.53;;;1.63;;
28774;SDS011;15926;51.348;6.596;2023-03-23T16:35:37;4.13;;;1.35;;
28774;SDS011;15926;51.348;6.596;2023-03-23T16:38:03;2.30;;;1.50;;
28774;SDS011;15926;51.348;6.596;2023-03-23T16:40:29;3.70;;;1.38;;
28774;SDS011;15926;51.348;6.596;2023-03-23T16:42:55;5.43;;;1.85;;
28774;SDS011;15926;51.348;6.596;2023-03-23T16:45:21;5.72;;;1.75;;
28774;SDS011;15926;51.348;6.596;2023-03-23T16:47:48;4.72;;;1.50;;